sensor_id;sensor_type;location;lat;lon;timestamp;P1;durP1;ratioP1;P2;durP2;ratioP2
30380;SDS011;17169;50.966;11.038;2023-03-01T00:02:52;26.95;;;14.55;;
30380;SDS011;17169;50.966;11.038;2023-03-01T00:05:54;26.40;;;14.48;;
30380;SDS011;17169;50.966;11.038;2023-03-01T00:08:57;27.02;;;14.18;;
30380;SDS011;17169;50.966;11.038;2023-03-01T00:11:59;35.25;;;16.05;;
30380;SDS011;17169;50.966;11.038;2023-03-01T00:15:02;26.75;;;14.15;;
30380;SDS011;17169;50.966;11.038;2023-03-01T00:18:07;25.60;;;14.45;;
30380;SDS011;17169;50.966;11.038;2023-03-01T00:21:10;31.73;;;14.93;;
30380;SDS011;17169;50.966;11.038;2023-03-01T00:24:12;26.42;;;14.85;;
30380;SDS011;17169;50.966;11.038;2023-03-01T00:27:15;31.05;;;14.80;;
30380;SDS011;17169;50.966;11.038;2023-03-01T00:30:17;27.55;;;15.13;;
30380;SDS011;17169;50.966;11.038;2023-03-01T00:33:21;27.45;;;15.13;;
30380;SDS011;17169;50.966;11.038;2023-03-01T00:36:24;26.83;;;14.63;;
30380;SDS011;17169;50.966;11.038;2023-03-01T00:39:28;28.08;;;14.40;;
30380;SDS011;17169;50.966;11.038;2023-03-01T00:42:30;31.38;;;15.05;;
30380;SDS011;17169;50.966;11.038;2023-03-01T00:45:33;31.33;;;15.90;;
30380;SDS011;17169;50.966;11.038;2023-03-01T00:48:36;36.45;;;15.70;;
30380;SDS011;17169;50.966;11.038;2023-03-01T00:51:39;26.10;;;14.77;;
30380;SDS011;17169;50.966;11.038;2023-03-01T00:54:42;27.17;;;15.63;;
30380;SDS011;17169;50.966;11.038;2023-03-01T00:57:44;32.13;;;16.15;;
30380;SDS011;17169;50.966;11.038;2023-03-01T01:00:46;28.75;;;15.20;;
30380;SDS011;17169;50.966;11.038;2023-03-01T01:03:51;29.48;;;15.70;;
30380;SDS011;17169;50.966;11.038;2023-03-01T01:06:55;32.05;;;17.05;;
30380;SDS011;17169;50.966;11.038;2023-03-01T01:09:57;25.00;;;14.02;;
30380;SDS011;17169;50.966;11.038;2023-03-01T01:12:59;34.45;;;16.85;;
30380;SDS011;17169;50.966;11.038;2023-03-01T01:16:02;29.73;;;15.80;;
30380;SDS011;17169;50.966;11.038;2023-03-01T01:19:06;30.58;;;15.70;;
30380;SDS011;17169;50.966;11.038;2023-03-01T01:22:09;33.53;;;16.15;;
30380;SDS011;17169;50.966;11.038;2023-03-01T01:25:11;32.45;;;16.77;;
30380;SDS011;17169;50.966;11.038;2023-03-01T01:28:13;31.25;;;16.40;;
30380;SDS011;17169;50.966;11.038;2023-03-01T01:31:16;27.88;;;15.98;;
30380;SDS011;17169;50.966;11.038;2023-03-01T01:34:20;31.75;;;16.67;;
30380;SDS011;17169;50.966;11.038;2023-03-01T01:37:23;28.35;;;15.00;;
30380;SDS011;17169;50.966;11.038;2023-03-01T01:40:31;31.58;;;16.02;;
30380;SDS011;17169;50.966;11.038;2023-03-01T01:43:34;29.88;;;15.57;;
30380;SDS011;17169;50.966;11.038;2023-03-01T01:46:38;31.35;;;16.85;;
30380;SDS011;17169;50.966;11.038;2023-03-01T01:49:44;34.88;;;17.02;;
30380;SDS011;17169;50.966;11.038;2023-03-01T01:52:50;31.23;;;15.68;;
30380;SDS011;17169;50.966;11.038;2023-03-01T01:55:55;31.92;;;15.93;;
30380;SDS011;17169;50.966;11.038;2023-03-01T01:59:02;29.88;;;16.77;;
30380;SDS011;17169;50.966;11.038;2023-03-01T02:02:04;29.20;;;16.45;;
30380;SDS011;17169;50.966;11.038;2023-03-01T02:05:11;33.92;;;17.10;;
30380;SDS011;17169;50.966;11.038;2023-03-01T02:08:19;34.63;;;15.93;;
30380;SDS011;17169;50.966;11.038;2023-03-01T02:11:22;29.70;;;16.67;;
30380;SDS011;17169;50.966;11.038;2023-03-01T02:14:26;30.00;;;16.88;;
30380;SDS011;17169;50.966;11.038;2023-03-01T02:17:28;26.95;;;16.20;;
30380;SDS011;17169;50.966;11.038;2023-03-01T02:20:34;31.15;;;16.85;;
30380;SDS011;17169;50.966;11.038;2023-03-01T02:23:40;31.73;;;17.95;;
30380;SDS011;17169;50.966;11.038;2023-03-01T02:26:46;35.13;;;18.05;;
30380;SDS011;17169;50.966;11.038;2023-03-01T02:29:53;42.08;;;18.00;;
30380;SDS011;17169;50.966;11.038;2023-03-01T02:32:56;32.53;;;17.05;;
30380;SDS011;17169;50.966;11.038;2023-03-01T02:36:03;28.38;;;16.85;;
30380;SDS011;17169;50.966;11.038;2023-03-01T02:39:10;30.85;;;16.55;;
30380;SDS011;17169;50.966;11.038;2023-03-01T02:42:19;34.95;;;18.55;;
30380;SDS011;17169;50.966;11.038;2023-03-01T02:45:26;33.88;;;16.98;;
30380;SDS011;17169;50.966;11.038;2023-03-01T02:48:38;28.13;;;16.20;;
30380;SDS011;17169;50.966;11.038;2023-03-01T02:51:43;27.58;;;16.83;;
30380;SDS011;17169;50.966;11.038;2023-03-01T02:54:50;33.97;;;16.88;;
30380;SDS011;17169;50.966;11.038;2023-03-01T02:57:57;28.95;;;16.25;;
30380;SDS011;17169;50.966;11.038;2023-03-01T03:01:05;29.50;;;16.80;;
30380;SDS011;17169;50.966;11.038;2023-03-01T03:04:10;34.33;;;17.67;;
30380;SDS011;17169;50.966;11.038;2023-03-01T03:07:17;36.40;;;16.55;;
30380;SDS011;17169;50.966;11.038;2023-03-01T03:10:20;34.33;;;17.60;;
30380;SDS011;17169;50.966;11.038;2023-03-01T03:13:24;34.25;;;16.90;;
30380;SDS011;17169;50.966;11.038;2023-03-01T03:16:30;32.70;;;17.73;;
30380;SDS011;17169;50.966;11.038;2023-03-01T03:19:32;30.55;;;16.40;;
30380;SDS011;17169;50.966;11.038;2023-03-01T03:22:34;31.45;;;16.77;;
30380;SDS011;17169;50.966;11.038;2023-03-01T03:25:37;33.92;;;15.93;;
30380;SDS011;17169;50.966;11.038;2023-03-01T03:28:39;31.60;;;17.23;;
30380;SDS011;17169;50.966;11.038;2023-03-01T03:31:43;32.75;;;16.08;;
30380;SDS011;17169;50.966;11.038;2023-03-01T03:34:45;32.78;;;16.88;;
30380;SDS011;17169;50.966;11.038;2023-03-01T03:37:48;30.90;;;17.40;;
30380;SDS011;17169;50.966;11.038;2023-03-01T03:41:05;34.78;;;18.00;;
30380;SDS011;17169;50.966;11.038;2023-03-01T03:47:12;32.40;;;18.27;;
30380;SDS011;17169;50.966;11.038;2023-03-01T03:50:15;37.17;;;17.80;;
30380;SDS011;17169;50.966;11.038;2023-03-01T03:53:19;34.83;;;17.33;;
30380;SDS011;17169;50.966;11.038;2023-03-01T03:56:22;30.08;;;17.45;;
30380;SDS011;17169;50.966;11.038;2023-03-01T03:59:26;32.28;;;18.13;;
30380;SDS011;17169;50.966;11.038;2023-03-01T04:02:30;30.70;;;17.50;;
30380;SDS011;17169;50.966;11.038;2023-03-01T04:05:33;37.20;;;18.52;;
30380;SDS011;17169;50.966;11.038;2023-03-01T04:08:35;35.95;;;19.17;;
30380;SDS011;17169;50.966;11.038;2023-03-01T04:11:38;31.52;;;18.27;;
30380;SDS011;17169;50.966;11.038;2023-03-01T04:14:40;30.48;;;17.17;;
30380;SDS011;17169;50.966;11.038;2023-03-01T04:17:45;33.10;;;19.90;;
30380;SDS011;17169;50.966;11.038;2023-03-01T04:20:48;31.40;;;18.77;;
30380;SDS011;17169;50.966;11.038;2023-03-01T04:23:52;38.17;;;19.25;;
30380;SDS011;17169;50.966;11.038;2023-03-01T04:26:54;33.33;;;17.98;;
30380;SDS011;17169;50.966;11.038;2023-03-01T04:29:57;37.40;;;18.88;;
30380;SDS011;17169;50.966;11.038;2023-03-01T04:33:01;35.30;;;17.77;;
30380;SDS011;17169;50.966;11.038;2023-03-01T04:36:04;30.80;;;17.88;;
30380;SDS011;17169;50.966;11.038;2023-03-01T04:42:12;33.72;;;18.65;;
30380;SDS011;17169;50.966;11.038;2023-03-01T04:45:15;35.60;;;18.75;;
30380;SDS011;17169;50.966;11.038;2023-03-01T04:48:18;35.55;;;18.42;;
30380;SDS011;17169;50.966;11.038;2023-03-01T04:51:21;32.67;;;17.90;;
30380;SDS011;17169;50.966;11.038;2023-03-01T04:54:23;35.17;;;17.52;;
30380;SDS011;17169;50.966;11.038;2023-03-01T04:57:26;38.67;;;19.27;;
30380;SDS011;17169;50.966;11.038;2023-03-01T05:00:29;34.50;;;17.30;;
30380;SDS011;17169;50.966;11.038;2023-03-01T05:03:32;35.22;;;17.58;;
30380;SDS011;17169;50.966;11.038;2023-03-01T05:06:35;33.67;;;17.58;;
30380;SDS011;17169;50.966;11.038;2023-03-01T05:09:37;33.38;;;18.05;;
30380;SDS011;17169;50.966;11.038;2023-03-01T05:12:40;33.80;;;18.92;;
30380;SDS011;17169;50.966;11.038;2023-03-01T05:15:42;31.98;;;16.45;;
30380;SDS011;17169;50.966;11.038;2023-03-01T05:18:46;40.35;;;18.20;;
30380;SDS011;17169;50.966;11.038;2023-03-01T05:21:50;37.28;;;18.20;;
30380;SDS011;17169;50.966;11.038;2023-03-01T05:25:05;34.45;;;18.55;;
30380;SDS011;17169;50.966;11.038;2023-03-01T05:28:09;41.15;;;19.27;;
30380;SDS011;17169;50.966;11.038;2023-03-01T05:31:13;35.33;;;18.40;;
30380;SDS011;17169;50.966;11.038;2023-03-01T05:34:17;32.88;;;18.02;;
30380;SDS011;17169;50.966;11.038;2023-03-01T05:37:19;34.38;;;17.73;;
30380;SDS011;17169;50.966;11.038;2023-03-01T05:40:22;33.47;;;17.67;;
30380;SDS011;17169;50.966;11.038;2023-03-01T05:43:25;33.58;;;17.20;;
30380;SDS011;17169;50.966;11.038;2023-03-01T05:46:31;34.08;;;17.25;;
30380;SDS011;17169;50.966;11.038;2023-03-01T05:49:35;29.13;;;16.75;;
30380;SDS011;17169;50.966;11.038;2023-03-01T05:52:37;30.42;;;18.13;;
30380;SDS011;17169;50.966;11.038;2023-03-01T05:55:40;39.10;;;18.33;;
30380;SDS011;17169;50.966;11.038;2023-03-01T05:58:43;41.17;;;18.85;;
30380;SDS011;17169;50.966;11.038;2023-03-01T06:01:45;40.20;;;18.83;;
30380;SDS011;17169;50.966;11.038;2023-03-01T06:04:49;33.15;;;18.27;;
30380;SDS011;17169;50.966;11.038;2023-03-01T06:07:51;31.63;;;17.92;;
30380;SDS011;17169;50.966;11.038;2023-03-01T06:10:54;39.33;;;18.80;;
30380;SDS011;17169;50.966;11.038;2023-03-01T06:13:56;32.08;;;17.65;;
30380;SDS011;17169;50.966;11.038;2023-03-01T06:16:59;35.38;;;18.48;;
30380;SDS011;17169;50.966;11.038;2023-03-01T06:20:03;36.17;;;18.50;;
30380;SDS011;17169;50.966;11.038;2023-03-01T06:23:07;33.13;;;17.27;;
30380;SDS011;17169;50.966;11.038;2023-03-01T06:26:09;36.03;;;19.20;;
30380;SDS011;17169;50.966;11.038;2023-03-01T06:29:12;38.03;;;18.70;;
30380;SDS011;17169;50.966;11.038;2023-03-01T06:32:15;39.28;;;19.17;;
30380;SDS011;17169;50.966;11.038;2023-03-01T06:35:19;40.40;;;20.58;;
30380;SDS011;17169;50.966;11.038;2023-03-01T06:38:21;34.47;;;19.13;;
30380;SDS011;17169;50.966;11.038;2023-03-01T06:41:25;41.87;;;20.87;;
30380;SDS011;17169;50.966;11.038;2023-03-01T06:44:27;38.03;;;21.13;;
30380;SDS011;17169;50.966;11.038;2023-03-01T06:47:30;41.28;;;20.95;;
30380;SDS011;17169;50.966;11.038;2023-03-01T06:50:35;36.30;;;20.10;;
30380;SDS011;17169;50.966;11.038;2023-03-01T06:53:38;47.25;;;20.38;;
30380;SDS011;17169;50.966;11.038;2023-03-01T06:56:40;41.65;;;20.95;;
30380;SDS011;17169;50.966;11.038;2023-03-01T06:59:42;35.42;;;18.85;;
30380;SDS011;17169;50.966;11.038;2023-03-01T07:02:45;35.38;;;18.48;;
30380;SDS011;17169;50.966;11.038;2023-03-01T07:05:49;36.00;;;19.60;;
30380;SDS011;17169;50.966;11.038;2023-03-01T07:08:53;38.72;;;18.25;;
30380;SDS011;17169;50.966;11.038;2023-03-01T07:11:55;32.65;;;18.50;;
30380;SDS011;17169;50.966;11.038;2023-03-01T07:14:58;43.38;;;19.50;;
30380;SDS011;17169;50.966;11.038;2023-03-01T07:18:01;32.88;;;19.20;;
30380;SDS011;17169;50.966;11.038;2023-03-01T07:21:05;35.20;;;17.95;;
30380;SDS011;17169;50.966;11.038;2023-03-01T07:24:09;40.38;;;18.20;;
30380;SDS011;17169;50.966;11.038;2023-03-01T07:27:11;33.35;;;17.55;;
30380;SDS011;17169;50.966;11.038;2023-03-01T07:30:14;36.40;;;19.13;;
30380;SDS011;17169;50.966;11.038;2023-03-01T07:33:17;37.25;;;19.13;;
30380;SDS011;17169;50.966;11.038;2023-03-01T07:36:21;36.05;;;19.33;;
30380;SDS011;17169;50.966;11.038;2023-03-01T07:39:24;33.40;;;18.20;;
30380;SDS011;17169;50.966;11.038;2023-03-01T07:42:26;31.27;;;17.90;;
30380;SDS011;17169;50.966;11.038;2023-03-01T07:45:28;38.53;;;20.58;;
30380;SDS011;17169;50.966;11.038;2023-03-01T07:48:31;39.67;;;21.00;;
30380;SDS011;17169;50.966;11.038;2023-03-01T07:51:35;33.90;;;19.58;;
30380;SDS011;17169;50.966;11.038;2023-03-01T07:54:38;36.08;;;19.05;;
30380;SDS011;17169;50.966;11.038;2023-03-01T07:57:40;28.15;;;18.42;;
30380;SDS011;17169;50.966;11.038;2023-03-01T08:00:43;34.88;;;18.00;;
30380;SDS011;17169;50.966;11.038;2023-03-01T08:03:45;37.25;;;20.10;;
30380;SDS011;17169;50.966;11.038;2023-03-01T08:06:49;29.67;;;16.70;;
30380;SDS011;17169;50.966;11.038;2023-03-01T08:09:51;31.52;;;16.67;;
30380;SDS011;17169;50.966;11.038;2023-03-01T08:12:53;37.65;;;17.38;;
30380;SDS011;17169;50.966;11.038;2023-03-01T08:16:00;38.22;;;17.63;;
30380;SDS011;17169;50.966;11.038;2023-03-01T08:19:04;29.90;;;16.35;;
30380;SDS011;17169;50.966;11.038;2023-03-01T08:22:08;29.02;;;16.73;;
30380;SDS011;17169;50.966;11.038;2023-03-01T08:25:10;31.05;;;16.48;;
30380;SDS011;17169;50.966;11.038;2023-03-01T08:28:12;29.70;;;17.45;;
30380;SDS011;17169;50.966;11.038;2023-03-01T08:31:16;28.48;;;15.25;;
30380;SDS011;17169;50.966;11.038;2023-03-01T08:37:23;31.13;;;15.27;;
30380;SDS011;17169;50.966;11.038;2023-03-01T08:40:26;29.00;;;16.27;;
30380;SDS011;17169;50.966;11.038;2023-03-01T08:43:29;30.38;;;14.35;;
30380;SDS011;17169;50.966;11.038;2023-03-01T08:46:32;28.88;;;14.15;;
30380;SDS011;17169;50.966;11.038;2023-03-01T08:49:36;26.88;;;15.15;;
30380;SDS011;17169;50.966;11.038;2023-03-01T08:52:40;26.23;;;15.38;;
30380;SDS011;17169;50.966;11.038;2023-03-01T08:55:42;23.83;;;13.68;;
30380;SDS011;17169;50.966;11.038;2023-03-01T08:58:45;28.52;;;15.45;;
30380;SDS011;17169;50.966;11.038;2023-03-01T09:01:48;27.73;;;15.13;;
30380;SDS011;17169;50.966;11.038;2023-03-01T09:04:50;25.63;;;14.10;;
30380;SDS011;17169;50.966;11.038;2023-03-01T09:07:54;26.17;;;14.27;;
30380;SDS011;17169;50.966;11.038;2023-03-01T09:10:56;27.90;;;14.63;;
30380;SDS011;17169;50.966;11.038;2023-03-01T09:13:58;28.17;;;14.18;;
30380;SDS011;17169;50.966;11.038;2023-03-01T09:17:01;24.95;;;13.90;;
30380;SDS011;17169;50.966;11.038;2023-03-01T09:20:04;39.17;;;13.90;;
30380;SDS011;17169;50.966;11.038;2023-03-01T09:23:08;28.83;;;15.43;;
30380;SDS011;17169;50.966;11.038;2023-03-01T09:26:11;28.33;;;15.90;;
30380;SDS011;17169;50.966;11.038;2023-03-01T09:29:15;31.37;;;15.73;;
30380;SDS011;17169;50.966;11.038;2023-03-01T09:32:18;23.70;;;13.02;;
30380;SDS011;17169;50.966;11.038;2023-03-01T09:35:20;26.95;;;16.05;;
30380;SDS011;17169;50.966;11.038;2023-03-01T09:38:25;24.45;;;13.98;;
30380;SDS011;17169;50.966;11.038;2023-03-01T09:41:33;24.97;;;13.43;;
30380;SDS011;17169;50.966;11.038;2023-03-01T09:44:45;22.92;;;13.57;;
30380;SDS011;17169;50.966;11.038;2023-03-01T09:47:53;22.45;;;12.25;;
30380;SDS011;17169;50.966;11.038;2023-03-01T09:50:56;25.25;;;13.52;;
30380;SDS011;17169;50.966;11.038;2023-03-01T09:54:00;26.98;;;13.10;;
30380;SDS011;17169;50.966;11.038;2023-03-01T09:57:05;25.35;;;13.68;;
30380;SDS011;17169;50.966;11.038;2023-03-01T10:00:20;27.13;;;13.80;;
30380;SDS011;17169;50.966;11.038;2023-03-01T10:03:31;23.70;;;12.93;;
30380;SDS011;17169;50.966;11.038;2023-03-01T10:06:41;26.77;;;15.15;;
30380;SDS011;17169;50.966;11.038;2023-03-01T10:09:53;20.92;;;12.10;;
30380;SDS011;17169;50.966;11.038;2023-03-01T10:12:56;23.65;;;13.25;;
30380;SDS011;17169;50.966;11.038;2023-03-01T10:16:00;24.42;;;13.43;;
30380;SDS011;17169;50.966;11.038;2023-03-01T10:19:09;24.77;;;12.82;;
30380;SDS011;17169;50.966;11.038;2023-03-01T10:22:16;28.33;;;13.93;;
30380;SDS011;17169;50.966;11.038;2023-03-01T10:25:27;24.08;;;13.32;;
30380;SDS011;17169;50.966;11.038;2023-03-01T10:28:44;23.80;;;13.30;;
30380;SDS011;17169;50.966;11.038;2023-03-01T10:31:53;25.40;;;13.90;;
30380;SDS011;17169;50.966;11.038;2023-03-01T10:34:56;22.60;;;11.60;;
30380;SDS011;17169;50.966;11.038;2023-03-01T10:38:03;21.60;;;11.88;;
30380;SDS011;17169;50.966;11.038;2023-03-01T10:41:08;24.65;;;12.57;;
30380;SDS011;17169;50.966;11.038;2023-03-01T10:44:11;27.38;;;13.15;;
30380;SDS011;17169;50.966;11.038;2023-03-01T10:47:44;22.30;;;12.18;;
30380;SDS011;17169;50.966;11.038;2023-03-01T10:50:47;23.55;;;12.95;;
30380;SDS011;17169;50.966;11.038;2023-03-01T10:53:50;22.75;;;11.93;;
30380;SDS011;17169;50.966;11.038;2023-03-01T10:56:55;22.35;;;11.98;;
30380;SDS011;17169;50.966;11.038;2023-03-01T11:00:13;21.52;;;11.07;;
30380;SDS011;17169;50.966;11.038;2023-03-01T11:03:23;20.63;;;11.95;;
30380;SDS011;17169;50.966;11.038;2023-03-01T11:06:29;21.65;;;11.70;;
30380;SDS011;17169;50.966;11.038;2023-03-01T11:09:32;25.95;;;12.18;;
30380;SDS011;17169;50.966;11.038;2023-03-01T11:12:39;22.75;;;12.57;;
30380;SDS011;17169;50.966;11.038;2023-03-01T11:15:42;24.40;;;13.07;;
30380;SDS011;17169;50.966;11.038;2023-03-01T11:19:03;24.42;;;12.25;;
30380;SDS011;17169;50.966;11.038;2023-03-01T11:22:18;21.65;;;13.52;;
30380;SDS011;17169;50.966;11.038;2023-03-01T11:25:24;27.70;;;12.50;;
30380;SDS011;17169;50.966;11.038;2023-03-01T11:28:29;25.90;;;12.95;;
30380;SDS011;17169;50.966;11.038;2023-03-01T11:31:32;22.30;;;12.68;;
30380;SDS011;17169;50.966;11.038;2023-03-01T11:34:40;21.50;;;12.40;;
30380;SDS011;17169;50.966;11.038;2023-03-01T11:37:55;24.90;;;13.15;;
30380;SDS011;17169;50.966;11.038;2023-03-01T11:41:06;22.33;;;12.15;;
30380;SDS011;17169;50.966;11.038;2023-03-01T11:44:14;27.52;;;11.80;;
30380;SDS011;17169;50.966;11.038;2023-03-01T11:47:22;27.23;;;12.15;;
30380;SDS011;17169;50.966;11.038;2023-03-01T11:50:35;25.20;;;12.13;;
30380;SDS011;17169;50.966;11.038;2023-03-01T11:53:49;19.95;;;10.77;;
30380;SDS011;17169;50.966;11.038;2023-03-01T11:56:59;23.38;;;11.65;;
30380;SDS011;17169;50.966;11.038;2023-03-01T12:00:22;22.67;;;12.95;;
30380;SDS011;17169;50.966;11.038;2023-03-01T12:03:40;25.67;;;12.90;;
30380;SDS011;17169;50.966;11.038;2023-03-01T12:06:57;19.38;;;11.15;;
30380;SDS011;17169;50.966;11.038;2023-03-01T12:10:07;25.67;;;13.32;;
30380;SDS011;17169;50.966;11.038;2023-03-01T12:13:35;22.98;;;11.88;;
30380;SDS011;17169;50.966;11.038;2023-03-01T12:17:09;23.15;;;11.73;;
30380;SDS011;17169;50.966;11.038;2023-03-01T12:20:31;22.77;;;13.00;;
30380;SDS011;17169;50.966;11.038;2023-03-01T12:23:43;22.17;;;11.55;;
30380;SDS011;17169;50.966;11.038;2023-03-01T12:27:12;22.60;;;12.18;;
30380;SDS011;17169;50.966;11.038;2023-03-01T12:30:28;23.45;;;12.43;;
30380;SDS011;17169;50.966;11.038;2023-03-01T12:33:45;23.63;;;13.15;;
30380;SDS011;17169;50.966;11.038;2023-03-01T12:36:57;23.63;;;13.20;;
30380;SDS011;17169;50.966;11.038;2023-03-01T12:40:16;24.80;;;13.18;;
30380;SDS011;17169;50.966;11.038;2023-03-01T12:44:01;24.23;;;13.43;;
30380;SDS011;17169;50.966;11.038;2023-03-01T12:50:23;24.73;;;13.23;;
30380;SDS011;17169;50.966;11.038;2023-03-01T12:53:32;23.00;;;12.50;;
30380;SDS011;17169;50.966;11.038;2023-03-01T12:56:38;23.75;;;13.23;;
30380;SDS011;17169;50.966;11.038;2023-03-01T12:59:42;25.02;;;14.20;;
30380;SDS011;17169;50.966;11.038;2023-03-01T13:02:54;24.13;;;13.07;;
30380;SDS011;17169;50.966;11.038;2023-03-01T13:06:07;24.85;;;12.40;;
30380;SDS011;17169;50.966;11.038;2023-03-01T13:09:14;25.63;;;12.82;;
30380;SDS011;17169;50.966;11.038;2023-03-01T13:19:24;22.38;;;12.95;;
30380;SDS011;17169;50.966;11.038;2023-03-01T13:22:31;24.10;;;12.60;;
30380;SDS011;17169;50.966;11.038;2023-03-01T13:25:34;28.15;;;12.77;;
30380;SDS011;17169;50.966;11.038;2023-03-01T13:28:57;21.42;;;12.07;;
30380;SDS011;17169;50.966;11.038;2023-03-01T13:32:01;20.38;;;11.45;;
30380;SDS011;17169;50.966;11.038;2023-03-01T13:35:07;22.13;;;12.45;;
30380;SDS011;17169;50.966;11.038;2023-03-01T13:38:47;21.83;;;12.45;;
30380;SDS011;17169;50.966;11.038;2023-03-01T13:41:57;22.85;;;12.32;;
30380;SDS011;17169;50.966;11.038;2023-03-01T13:45:01;22.15;;;12.05;;
30380;SDS011;17169;50.966;11.038;2023-03-01T13:48:08;26.17;;;12.73;;
30380;SDS011;17169;50.966;11.038;2023-03-01T13:51:16;22.77;;;12.23;;
30380;SDS011;17169;50.966;11.038;2023-03-01T13:54:28;25.17;;;13.60;;
30380;SDS011;17169;50.966;11.038;2023-03-01T13:57:33;20.95;;;11.73;;
30380;SDS011;17169;50.966;11.038;2023-03-01T14:00:39;25.73;;;12.90;;
30380;SDS011;17169;50.966;11.038;2023-03-01T14:03:42;23.48;;;12.88;;
30380;SDS011;17169;50.966;11.038;2023-03-01T14:06:44;24.55;;;13.65;;
30380;SDS011;17169;50.966;11.038;2023-03-01T14:09:48;25.08;;;12.18;;
30380;SDS011;17169;50.966;11.038;2023-03-01T14:12:55;23.23;;;13.75;;
30380;SDS011;17169;50.966;11.038;2023-03-01T14:16:11;28.67;;;14.23;;
30380;SDS011;17169;50.966;11.038;2023-03-01T14:19:24;26.33;;;13.75;;
30380;SDS011;17169;50.966;11.038;2023-03-01T14:22:29;24.52;;;13.23;;
30380;SDS011;17169;50.966;11.038;2023-03-01T14:25:36;31.25;;;16.60;;
30380;SDS011;17169;50.966;11.038;2023-03-01T14:28:39;25.30;;;14.40;;
30380;SDS011;17169;50.966;11.038;2023-03-01T14:31:44;28.73;;;14.43;;
30380;SDS011;17169;50.966;11.038;2023-03-01T14:34:48;25.20;;;13.27;;
30380;SDS011;17169;50.966;11.038;2023-03-01T14:37:51;26.73;;;12.93;;
30380;SDS011;17169;50.966;11.038;2023-03-01T14:40:56;25.10;;;13.13;;
30380;SDS011;17169;50.966;11.038;2023-03-01T14:44:03;28.75;;;14.43;;
30380;SDS011;17169;50.966;11.038;2023-03-01T14:47:10;25.52;;;13.82;;
30380;SDS011;17169;50.966;11.038;2023-03-01T14:50:19;27.50;;;13.98;;
30380;SDS011;17169;50.966;11.038;2023-03-01T14:53:25;19.73;;;12.68;;
30380;SDS011;17169;50.966;11.038;2023-03-01T14:56:32;23.83;;;12.73;;
30380;SDS011;17169;50.966;11.038;2023-03-01T14:59:45;25.23;;;13.57;;
30380;SDS011;17169;50.966;11.038;2023-03-01T15:02:50;25.30;;;12.82;;
30380;SDS011;17169;50.966;11.038;2023-03-01T15:05:53;26.08;;;13.52;;
30380;SDS011;17169;50.966;11.038;2023-03-01T15:08:56;21.27;;;12.90;;
30380;SDS011;17169;50.966;11.038;2023-03-01T15:12:00;22.40;;;12.52;;
30380;SDS011;17169;50.966;11.038;2023-03-01T15:15:31;20.63;;;11.85;;
30380;SDS011;17169;50.966;11.038;2023-03-01T15:18:36;23.17;;;12.85;;
30380;SDS011;17169;50.966;11.038;2023-03-01T15:21:46;21.45;;;12.35;;
30380;SDS011;17169;50.966;11.038;2023-03-01T15:24:50;20.80;;;11.85;;
30380;SDS011;17169;50.966;11.038;2023-03-01T15:27:55;25.75;;;12.77;;
30380;SDS011;17169;50.966;11.038;2023-03-01T15:31:00;24.55;;;13.00;;
30380;SDS011;17169;50.966;11.038;2023-03-01T15:34:10;19.40;;;11.38;;
30380;SDS011;17169;50.966;11.038;2023-03-01T15:40:48;21.13;;;12.05;;
30380;SDS011;17169;50.966;11.038;2023-03-01T15:43:53;25.13;;;13.10;;
30380;SDS011;17169;50.966;11.038;2023-03-01T15:46:56;26.88;;;11.90;;
30380;SDS011;17169;50.966;11.038;2023-03-01T15:49:59;26.88;;;11.98;;
30380;SDS011;17169;50.966;11.038;2023-03-01T15:53:04;24.40;;;11.55;;
30380;SDS011;17169;50.966;11.038;2023-03-01T15:56:11;20.85;;;10.23;;
30380;SDS011;17169;50.966;11.038;2023-03-01T15:59:15;18.58;;;9.75;;
30380;SDS011;17169;50.966;11.038;2023-03-01T16:02:17;23.92;;;10.30;;
30380;SDS011;17169;50.966;11.038;2023-03-01T16:05:22;19.83;;;10.45;;
30380;SDS011;17169;50.966;11.038;2023-03-01T16:08:25;20.13;;;11.00;;
30380;SDS011;17169;50.966;11.038;2023-03-01T16:11:28;23.50;;;10.93;;
30380;SDS011;17169;50.966;11.038;2023-03-01T16:14:33;22.30;;;11.20;;
30380;SDS011;17169;50.966;11.038;2023-03-01T16:17:35;22.77;;;11.15;;
30380;SDS011;17169;50.966;11.038;2023-03-01T16:20:38;21.15;;;10.98;;
30380;SDS011;17169;50.966;11.038;2023-03-01T16:23:40;23.17;;;11.00;;
30380;SDS011;17169;50.966;11.038;2023-03-01T16:26:43;26.00;;;10.93;;
30380;SDS011;17169;50.966;11.038;2023-03-01T16:29:47;21.30;;;11.73;;
30380;SDS011;17169;50.966;11.038;2023-03-01T16:32:49;25.00;;;11.98;;
30380;SDS011;17169;50.966;11.038;2023-03-01T16:35:52;21.80;;;11.82;;
30380;SDS011;17169;50.966;11.038;2023-03-01T16:38:55;18.83;;;10.75;;
30380;SDS011;17169;50.966;11.038;2023-03-01T16:42:00;25.20;;;12.25;;
30380;SDS011;17169;50.966;11.038;2023-03-01T16:45:05;21.15;;;11.88;;
30380;SDS011;17169;50.966;11.038;2023-03-01T16:48:08;19.67;;;10.55;;
30380;SDS011;17169;50.966;11.038;2023-03-01T16:51:11;25.20;;;10.82;;
30380;SDS011;17169;50.966;11.038;2023-03-01T16:54:14;21.85;;;11.00;;
30380;SDS011;17169;50.966;11.038;2023-03-01T16:57:16;20.10;;;11.20;;
30380;SDS011;17169;50.966;11.038;2023-03-01T17:00:20;23.13;;;10.90;;
30380;SDS011;17169;50.966;11.038;2023-03-01T17:03:25;23.02;;;12.50;;
30380;SDS011;17169;50.966;11.038;2023-03-01T17:06:29;22.23;;;12.00;;
30380;SDS011;17169;50.966;11.038;2023-03-01T17:09:34;19.65;;;9.98;;
30380;SDS011;17169;50.966;11.038;2023-03-01T17:12:37;26.55;;;13.25;;
30380;SDS011;17169;50.966;11.038;2023-03-01T17:15:41;27.00;;;13.98;;
30380;SDS011;17169;50.966;11.038;2023-03-01T17:18:43;25.15;;;11.02;;
30380;SDS011;17169;50.966;11.038;2023-03-01T17:21:46;22.40;;;12.07;;
30380;SDS011;17169;50.966;11.038;2023-03-01T17:24:48;20.10;;;10.65;;
30380;SDS011;17169;50.966;11.038;2023-03-01T17:27:51;19.83;;;10.18;;
30380;SDS011;17169;50.966;11.038;2023-03-01T17:30:55;20.27;;;11.45;;
30380;SDS011;17169;50.966;11.038;2023-03-01T17:33:57;26.52;;;12.07;;
30380;SDS011;17169;50.966;11.038;2023-03-01T17:36:59;19.75;;;11.18;;
30380;SDS011;17169;50.966;11.038;2023-03-01T17:40:02;22.33;;;11.63;;
30380;SDS011;17169;50.966;11.038;2023-03-01T17:43:05;21.05;;;11.35;;
30380;SDS011;17169;50.966;11.038;2023-03-01T17:46:09;24.15;;;12.00;;
30380;SDS011;17169;50.966;11.038;2023-03-01T17:49:12;22.08;;;11.90;;
30380;SDS011;17169;50.966;11.038;2023-03-01T17:52:14;24.67;;;12.40;;
30380;SDS011;17169;50.966;11.038;2023-03-01T17:55:17;22.70;;;11.55;;
30380;SDS011;17169;50.966;11.038;2023-03-01T17:58:19;24.27;;;11.65;;
30380;SDS011;17169;50.966;11.038;2023-03-01T18:01:23;24.35;;;12.82;;
30380;SDS011;17169;50.966;11.038;2023-03-01T18:04:26;31.17;;;12.75;;
30380;SDS011;17169;50.966;11.038;2023-03-01T18:07:28;26.15;;;13.32;;
30380;SDS011;17169;50.966;11.038;2023-03-01T18:10:31;22.95;;;13.73;;
30380;SDS011;17169;50.966;11.038;2023-03-01T18:13:37;28.02;;;13.60;;